sensor_id;sensor_type;location;lat;lon;timestamp;P1;durP1;ratioP1;P2;durP2;ratioP2
2396;SDS011;1209;48.410;9.054;2022-12-11T00:02:03;13.87;;;7.97;;
2396;SDS011;1209;48.410;9.054;2022-12-11T00:04:29;11.17;;;7.57;;
2396;SDS011;1209;48.410;9.054;2022-12-11T00:06:54;10.00;;;7.30;;
2396;SDS011;1209;48.410;9.054;2022-12-11T00:09:20;10.20;;;6.90;;
2396;SDS011;1209;48.410;9.054;2022-12-11T00:11:46;12.77;;;6.57;;
2396;SDS011;1209;48.410;9.054;2022-12-11T00:14:12;13.65;;;7.22;;
2396;SDS011;1209;48.410;9.054;2022-12-11T00:16:39;13.93;;;7.82;;
2396;SDS011;1209;48.410;9.054;2022-12-11T00:19:05;9.82;;;7.40;;
2396;SDS011;1209;48.410;9.054;2022-12-11T00:21:31;12.52;;;7.30;;
2396;SDS011;1209;48.410;9.054;2022-12-11T00:23:57;14.17;;;7.17;;
2396;SDS011;1209;48.410;9.054;2022-12-11T00:26:22;11.10;;;6.80;;
2396;SDS011;1209;48.410;9.054;2022-12-11T00:28:50;16.27;;;6.77;;
2396;SDS011;1209;48.410;9.054;2022-12-11T00:31:18;11.05;;;6.43;;
2396;SDS011;1209;48.410;9.054;2022-12-11T00:33:45;13.23;;;7.43;;
2396;SDS011;1209;48.410;9.054;2022-12-11T00:36:13;13.80;;;7.53;;
2396;SDS011;1209;48.410;9.054;2022-12-11T00:38:50;13.15;;;7.47;;
2396;SDS011;1209;48.410;9.054;2022-12-11T00:41:17;15.73;;;8.65;;
2396;SDS011;1209;48.410;9.054;2022-12-11T00:43:43;12.60;;;7.10;;
2396;SDS011;1209;48.410;9.054;2022-12-11T00:46:09;10.77;;;6.60;;
2396;SDS011;1209;48.410;9.054;2022-12-11T00:48:34;11.77;;;7.00;;
2396;SDS011;1209;48.410;9.054;2022-12-11T00:51:00;18.00;;;8.30;;
2396;SDS011;1209;48.410;9.054;2022-12-11T00:53:25;11.23;;;5.53;;
2396;SDS011;1209;48.410;9.054;2022-12-11T00:55:52;11.10;;;7.27;;
2396;SDS011;1209;48.410;9.054;2022-12-11T00:58:17;9.40;;;6.43;;
2396;SDS011;1209;48.410;9.054;2022-12-11T01:00:43;13.70;;;7.00;;
2396;SDS011;1209;48.410;9.054;2022-12-11T01:03:12;12.68;;;7.03;;
2396;SDS011;1209;48.410;9.054;2022-12-11T01:05:38;10.80;;;6.60;;
2396;SDS011;1209;48.410;9.054;2022-12-11T01:08:04;16.33;;;7.53;;
2396;SDS011;1209;48.410;9.054;2022-12-11T01:10:30;15.13;;;6.83;;
2396;SDS011;1209;48.410;9.054;2022-12-11T01:12:59;12.38;;;7.13;;
2396;SDS011;1209;48.410;9.054;2022-12-11T01:15:27;14.50;;;7.20;;
2396;SDS011;1209;48.410;9.054;2022-12-11T01:17:54;16.13;;;8.10;;
2396;SDS011;1209;48.410;9.054;2022-12-11T01:20:23;13.07;;;8.07;;
2396;SDS011;1209;48.410;9.054;2022-12-11T01:22:53;16.30;;;8.07;;
2396;SDS011;1209;48.410;9.054;2022-12-11T01:25:20;13.88;;;7.95;;
2396;SDS011;1209;48.410;9.054;2022-12-11T01:27:46;17.87;;;9.20;;
2396;SDS011;1209;48.410;9.054;2022-12-11T01:30:14;14.20;;;7.63;;
2396;SDS011;1209;48.410;9.054;2022-12-11T01:32:39;15.83;;;8.67;;
2396;SDS011;1209;48.410;9.054;2022-12-11T01:35:06;15.90;;;8.20;;
2396;SDS011;1209;48.410;9.054;2022-12-11T01:37:32;11.65;;;7.60;;
2396;SDS011;1209;48.410;9.054;2022-12-11T01:39:58;13.45;;;7.40;;
2396;SDS011;1209;48.410;9.054;2022-12-11T01:42:25;15.63;;;8.52;;
2396;SDS011;1209;48.410;9.054;2022-12-11T01:45:53;10.50;;;8.02;;
2396;SDS011;1209;48.410;9.054;2022-12-11T01:47:48;12.93;;;6.40;;
2396;SDS011;1209;48.410;9.054;2022-12-11T01:50:16;14.25;;;7.85;;
2396;SDS011;1209;48.410;9.054;2022-12-11T01:52:42;14.10;;;7.90;;
2396;SDS011;1209;48.410;9.054;2022-12-11T01:55:10;15.52;;;6.90;;
2396;SDS011;1209;48.410;9.054;2022-12-11T01:57:36;13.47;;;7.20;;
2396;SDS011;1209;48.410;9.054;2022-12-11T02:00:06;11.15;;;6.13;;
2396;SDS011;1209;48.410;9.054;2022-12-11T02:02:32;11.43;;;7.00;;
2396;SDS011;1209;48.410;9.054;2022-12-11T02:05:01;12.90;;;6.50;;
2396;SDS011;1209;48.410;9.054;2022-12-11T02:07:28;17.38;;;8.27;;
2396;SDS011;1209;48.410;9.054;2022-12-11T02:10:03;13.63;;;7.72;;
2396;SDS011;1209;48.410;9.054;2022-12-11T02:12:30;10.15;;;6.80;;
2396;SDS011;1209;48.410;9.054;2022-12-11T02:17:54;11.82;;;7.20;;
2396;SDS011;1209;48.410;9.054;2022-12-11T02:20:42;10.80;;;6.30;;
2396;SDS011;1209;48.410;9.054;2022-12-11T02:31:11;12.65;;;6.93;;
2396;SDS011;1209;48.410;9.054;2022-12-11T02:33:47;10.52;;;5.97;;
2396;SDS011;1209;48.410;9.054;2022-12-11T02:36:20;12.88;;;7.70;;
2396;SDS011;1209;48.410;9.054;2022-12-11T02:38:49;13.73;;;7.07;;
2396;SDS011;1209;48.410;9.054;2022-12-11T02:41:18;14.55;;;7.50;;
2396;SDS011;1209;48.410;9.054;2022-12-11T02:43:47;13.77;;;7.43;;
2396;SDS011;1209;48.410;9.054;2022-12-11T02:46:14;17.15;;;8.43;;
2396;SDS011;1209;48.410;9.054;2022-12-11T02:48:44;11.75;;;7.53;;
2396;SDS011;1209;48.410;9.054;2022-12-11T02:51:12;7.90;;;5.25;;
2396;SDS011;1209;48.410;9.054;2022-12-11T02:53:41;13.65;;;6.47;;
2396;SDS011;1209;48.410;9.054;2022-12-11T02:56:18;14.07;;;6.72;;
2396;SDS011;1209;48.410;9.054;2022-12-11T02:58:54;13.95;;;6.45;;
2396;SDS011;1209;48.410;9.054;2022-12-11T03:01:25;9.27;;;5.63;;
2396;SDS011;1209;48.410;9.054;2022-12-11T03:03:51;10.93;;;5.40;;
2396;SDS011;1209;48.410;9.054;2022-12-11T03:06:18;18.60;;;7.63;;
2396;SDS011;1209;48.410;9.054;2022-12-11T03:08:48;13.55;;;6.90;;
2396;SDS011;1209;48.410;9.054;2022-12-11T03:11:16;9.30;;;5.55;;
2396;SDS011;1209;48.410;9.054;2022-12-11T03:13:42;13.02;;;6.00;;
2396;SDS011;1209;48.410;9.054;2022-12-11T03:24:37;15.07;;;7.40;;
2396;SDS011;1209;48.410;9.054;2022-12-11T03:27:18;12.80;;;6.10;;
2396;SDS011;1209;48.410;9.054;2022-12-11T03:29:57;12.13;;;6.55;;
2396;SDS011;1209;48.410;9.054;2022-12-11T03:32:27;13.55;;;6.90;;
2396;SDS011;1209;48.410;9.054;2022-12-11T03:34:59;10.25;;;6.43;;
2396;SDS011;1209;48.410;9.054;2022-12-11T03:37:32;15.07;;;7.25;;
2396;SDS011;1209;48.410;9.054;2022-12-11T03:40:02;13.93;;;6.38;;
2396;SDS011;1209;48.410;9.054;2022-12-11T03:42:32;19.95;;;7.40;;
2396;SDS011;1209;48.410;9.054;2022-12-11T03:44:58;15.45;;;7.32;;
2396;SDS011;1209;48.410;9.054;2022-12-11T03:47:26;14.05;;;7.15;;
2396;SDS011;1209;48.410;9.054;2022-12-11T03:49:53;13.45;;;7.13;;
2396;SDS011;1209;48.410;9.054;2022-12-11T03:52:22;15.63;;;8.18;;
2396;SDS011;1209;48.410;9.054;2022-12-11T03:54:51;13.25;;;8.18;;
2396;SDS011;1209;48.410;9.054;2022-12-11T03:57:20;15.77;;;8.27;;
2396;SDS011;1209;48.410;9.054;2022-12-11T03:59:49;17.85;;;8.25;;
2396;SDS011;1209;48.410;9.054;2022-12-11T04:02:15;18.80;;;8.17;;
2396;SDS011;1209;48.410;9.054;2022-12-11T04:04:41;18.47;;;8.63;;
2396;SDS011;1209;48.410;9.054;2022-12-11T04:07:07;10.57;;;7.45;;
2396;SDS011;1209;48.410;9.054;2022-12-11T04:09:35;14.35;;;7.97;;
2396;SDS011;1209;48.410;9.054;2022-12-11T04:12:00;13.50;;;7.78;;
2396;SDS011;1209;48.410;9.054;2022-12-11T04:14:26;14.93;;;7.07;;
2396;SDS011;1209;48.410;9.054;2022-12-11T04:17:09;12.65;;;7.35;;
2396;SDS011;1209;48.410;9.054;2022-12-11T04:19:35;16.57;;;7.90;;
2396;SDS011;1209;48.410;9.054;2022-12-11T04:22:19;13.75;;;7.75;;
2396;SDS011;1209;48.410;9.054;2022-12-11T04:24:51;14.57;;;7.80;;
2396;SDS011;1209;48.410;9.054;2022-12-11T04:27:16;16.40;;;8.70;;
2396;SDS011;1209;48.410;9.054;2022-12-11T04:30:04;11.15;;;6.90;;
2396;SDS011;1209;48.410;9.054;2022-12-11T04:32:32;14.98;;;7.18;;
2396;SDS011;1209;48.410;9.054;2022-12-11T04:34:57;14.77;;;7.47;;
2396;SDS011;1209;48.410;9.054;2022-12-11T04:37:22;13.57;;;6.70;;
2396;SDS011;1209;48.410;9.054;2022-12-11T04:39:48;15.07;;;6.77;;
2396;SDS011;1209;48.410;9.054;2022-12-11T04:42:14;12.27;;;7.50;;
2396;SDS011;1209;48.410;9.054;2022-12-11T04:44:40;16.13;;;8.25;;
2396;SDS011;1209;48.410;9.054;2022-12-11T04:47:05;17.60;;;7.73;;
2396;SDS011;1209;48.410;9.054;2022-12-11T04:49:32;13.33;;;6.20;;
2396;SDS011;1209;48.410;9.054;2022-12-11T04:51:57;13.95;;;7.10;;
2396;SDS011;1209;48.410;9.054;2022-12-11T04:54:22;14.47;;;6.87;;
2396;SDS011;1209;48.410;9.054;2022-12-11T04:56:48;11.23;;;6.33;;
2396;SDS011;1209;48.410;9.054;2022-12-11T04:59:13;14.50;;;6.70;;
2396;SDS011;1209;48.410;9.054;2022-12-11T05:01:38;19.00;;;7.50;;
2396;SDS011;1209;48.410;9.054;2022-12-11T05:04:04;12.43;;;7.67;;
2396;SDS011;1209;48.410;9.054;2022-12-11T05:06:29;16.63;;;8.53;;
2396;SDS011;1209;48.410;9.054;2022-12-11T05:08:54;13.87;;;7.03;;
2396;SDS011;1209;48.410;9.054;2022-12-11T05:11:20;12.63;;;6.90;;
2396;SDS011;1209;48.410;9.054;2022-12-11T05:13:45;18.53;;;8.47;;
2396;SDS011;1209;48.410;9.054;2022-12-11T05:16:12;14.97;;;7.53;;
2396;SDS011;1209;48.410;9.054;2022-12-11T05:18:39;11.05;;;6.70;;
2396;SDS011;1209;48.410;9.054;2022-12-11T05:21:06;10.87;;;6.50;;
2396;SDS011;1209;48.410;9.054;2022-12-11T05:23:33;8.73;;;6.90;;
2396;SDS011;1209;48.410;9.054;2022-12-11T05:26:01;11.23;;;6.97;;
2396;SDS011;1209;48.410;9.054;2022-12-11T05:28:29;11.35;;;7.22;;
2396;SDS011;1209;48.410;9.054;2022-12-11T05:30:56;12.98;;;7.82;;
2396;SDS011;1209;48.410;9.054;2022-12-11T05:33:24;23.33;;;11.18;;
2396;SDS011;1209;48.410;9.054;2022-12-11T05:35:52;13.23;;;6.85;;
2396;SDS011;1209;48.410;9.054;2022-12-11T05:38:17;15.95;;;7.15;;
2396;SDS011;1209;48.410;9.054;2022-12-11T05:40:43;14.20;;;6.63;;
2396;SDS011;1209;48.410;9.054;2022-12-11T05:43:09;16.10;;;8.10;;
2396;SDS011;1209;48.410;9.054;2022-12-11T05:45:34;14.70;;;6.00;;
2396;SDS011;1209;48.410;9.054;2022-12-11T05:47:59;17.87;;;7.97;;
2396;SDS011;1209;48.410;9.054;2022-12-11T05:50:25;13.67;;;7.07;;
2396;SDS011;1209;48.410;9.054;2022-12-11T05:52:50;12.87;;;7.10;;
2396;SDS011;1209;48.410;9.054;2022-12-11T05:55:15;11.40;;;8.03;;
2396;SDS011;1209;48.410;9.054;2022-12-11T05:57:41;9.70;;;6.70;;
2396;SDS011;1209;48.410;9.054;2022-12-11T06:00:08;19.13;;;7.23;;
2396;SDS011;1209;48.410;9.054;2022-12-11T06:02:35;14.65;;;6.82;;
2396;SDS011;1209;48.410;9.054;2022-12-11T06:05:01;13.07;;;7.20;;
2396;SDS011;1209;48.410;9.054;2022-12-11T06:07:26;10.60;;;7.17;;
2396;SDS011;1209;48.410;9.054;2022-12-11T06:09:51;12.20;;;6.80;;
2396;SDS011;1209;48.410;9.054;2022-12-11T06:12:17;19.03;;;7.07;;
2396;SDS011;1209;48.410;9.054;2022-12-11T06:14:42;18.07;;;6.97;;
2396;SDS011;1209;48.410;9.054;2022-12-11T06:17:07;14.83;;;7.30;;
2396;SDS011;1209;48.410;9.054;2022-12-11T06:19:33;11.57;;;7.23;;
2396;SDS011;1209;48.410;9.054;2022-12-11T06:21:58;10.10;;;7.40;;
2396;SDS011;1209;48.410;9.054;2022-12-11T06:24:23;11.90;;;6.80;;
2396;SDS011;1209;48.410;9.054;2022-12-11T06:26:49;11.50;;;7.43;;
2396;SDS011;1209;48.410;9.054;2022-12-11T06:29:15;15.20;;;7.87;;
2396;SDS011;1209;48.410;9.054;2022-12-11T06:31:40;11.55;;;6.68;;
2396;SDS011;1209;48.410;9.054;2022-12-11T06:34:08;13.68;;;5.90;;
2396;SDS011;1209;48.410;9.054;2022-12-11T06:36:35;12.55;;;6.53;;
2396;SDS011;1209;48.410;9.054;2022-12-11T06:39:02;13.17;;;7.83;;
2396;SDS011;1209;48.410;9.054;2022-12-11T06:41:28;13.10;;;7.30;;
2396;SDS011;1209;48.410;9.054;2022-12-11T06:43:54;9.87;;;6.23;;
2396;SDS011;1209;48.410;9.054;2022-12-11T06:46:20;15.43;;;7.00;;
2396;SDS011;1209;48.410;9.054;2022-12-11T06:48:45;13.23;;;6.83;;
2396;SDS011;1209;48.410;9.054;2022-12-11T06:51:13;18.27;;;8.77;;
2396;SDS011;1209;48.410;9.054;2022-12-11T06:53:40;21.17;;;8.70;;
2396;SDS011;1209;48.410;9.054;2022-12-11T06:56:08;14.77;;;8.32;;
2396;SDS011;1209;48.410;9.054;2022-12-11T06:58:35;16.42;;;9.60;;
2396;SDS011;1209;48.410;9.054;2022-12-11T07:01:02;19.13;;;8.20;;
2396;SDS011;1209;48.410;9.054;2022-12-11T07:03:28;15.38;;;8.98;;
2396;SDS011;1209;48.410;9.054;2022-12-11T07:05:58;16.40;;;9.10;;
2396;SDS011;1209;48.410;9.054;2022-12-11T07:08:27;14.80;;;8.18;;
2396;SDS011;1209;48.410;9.054;2022-12-11T07:10:53;10.90;;;6.05;;
2396;SDS011;1209;48.410;9.054;2022-12-11T07:13:18;12.53;;;6.67;;
2396;SDS011;1209;48.410;9.054;2022-12-11T07:15:43;12.10;;;7.10;;
2396;SDS011;1209;48.410;9.054;2022-12-11T07:18:09;11.67;;;7.30;;
2396;SDS011;1209;48.410;9.054;2022-12-11T07:20:35;8.25;;;5.35;;
2396;SDS011;1209;48.410;9.054;2022-12-11T07:23:02;9.60;;;5.90;;
2396;SDS011;1209;48.410;9.054;2022-12-11T07:25:27;11.38;;;6.82;;
2396;SDS011;1209;48.410;9.054;2022-12-11T07:27:53;17.27;;;6.90;;
2396;SDS011;1209;48.410;9.054;2022-12-11T07:30:18;9.47;;;6.70;;
2396;SDS011;1209;48.410;9.054;2022-12-11T07:32:43;11.90;;;7.00;;
2396;SDS011;1209;48.410;9.054;2022-12-11T07:35:09;15.47;;;8.90;;
2396;SDS011;1209;48.410;9.054;2022-12-11T07:37:34;13.60;;;7.37;;
2396;SDS011;1209;48.410;9.054;2022-12-11T07:39:59;17.50;;;8.27;;
2396;SDS011;1209;48.410;9.054;2022-12-11T07:42:25;14.73;;;8.20;;
2396;SDS011;1209;48.410;9.054;2022-12-11T07:44:50;24.97;;;10.37;;
2396;SDS011;1209;48.410;9.054;2022-12-11T07:47:16;14.73;;;9.80;;
2396;SDS011;1209;48.410;9.054;2022-12-11T07:49:42;21.70;;;10.50;;
2396;SDS011;1209;48.410;9.054;2022-12-11T07:52:08;17.27;;;10.52;;
2396;SDS011;1209;48.410;9.054;2022-12-11T07:54:34;20.17;;;10.52;;
2396;SDS011;1209;48.410;9.054;2022-12-11T07:56:59;13.70;;;9.20;;
2396;SDS011;1209;48.410;9.054;2022-12-11T07:59:24;15.50;;;9.10;;
2396;SDS011;1209;48.410;9.054;2022-12-11T08:01:50;15.70;;;10.37;;
2396;SDS011;1209;48.410;9.054;2022-12-11T08:04:15;15.57;;;7.97;;
2396;SDS011;1209;48.410;9.054;2022-12-11T08:06:41;13.60;;;7.70;;
2396;SDS011;1209;48.410;9.054;2022-12-11T08:09:08;18.05;;;8.20;;
2396;SDS011;1209;48.410;9.054;2022-12-11T08:11:35;11.18;;;6.65;;
2396;SDS011;1209;48.410;9.054;2022-12-11T08:14:01;12.70;;;8.17;;
2396;SDS011;1209;48.410;9.054;2022-12-11T08:16:27;21.23;;;7.47;;
2396;SDS011;1209;48.410;9.054;2022-12-11T08:18:53;22.90;;;8.97;;
2396;SDS011;1209;48.410;9.054;2022-12-11T08:21:22;18.00;;;9.90;;
2396;SDS011;1209;48.410;9.054;2022-12-11T08:23:49;16.70;;;10.15;;
2396;SDS011;1209;48.410;9.054;2022-12-11T08:26:20;22.23;;;11.27;;
2396;SDS011;1209;48.410;9.054;2022-12-11T08:28:48;16.63;;;10.60;;
2396;SDS011;1209;48.410;9.054;2022-12-11T08:31:14;15.57;;;9.43;;
2396;SDS011;1209;48.410;9.054;2022-12-11T08:33:40;15.80;;;8.88;;
2396;SDS011;1209;48.410;9.054;2022-12-11T08:36:07;13.52;;;7.30;;
2396;SDS011;1209;48.410;9.054;2022-12-11T08:38:34;19.20;;;10.65;;
2396;SDS011;1209;48.410;9.054;2022-12-11T08:41:08;16.45;;;8.15;;
2396;SDS011;1209;48.410;9.054;2022-12-11T08:43:41;18.27;;;9.23;;
2396;SDS011;1209;48.410;9.054;2022-12-11T08:46:06;19.57;;;8.73;;
2396;SDS011;1209;48.410;9.054;2022-12-11T08:48:33;20.83;;;9.57;;
2396;SDS011;1209;48.410;9.054;2022-12-11T08:50:59;22.52;;;10.20;;
2396;SDS011;1209;48.410;9.054;2022-12-11T08:53:30;13.18;;;7.68;;
2396;SDS011;1209;48.410;9.054;2022-12-11T08:56:06;21.23;;;10.18;;
2396;SDS011;1209;48.410;9.054;2022-12-11T08:58:33;19.10;;;8.68;;
2396;SDS011;1209;48.410;9.054;2022-12-11T09:01:04;15.80;;;8.70;;
2396;SDS011;1209;48.410;9.054;2022-12-11T09:03:40;21.08;;;9.80;;
2396;SDS011;1209;48.410;9.054;2022-12-11T09:06:07;38.17;;;16.00;;
2396;SDS011;1209;48.410;9.054;2022-12-11T09:08:34;38.00;;;18.52;;
2396;SDS011;1209;48.410;9.054;2022-12-11T09:11:03;37.70;;;15.00;;
2396;SDS011;1209;48.410;9.054;2022-12-11T09:13:33;30.58;;;13.27;;
2396;SDS011;1209;48.410;9.054;2022-12-11T09:15:59;25.38;;;10.20;;
2396;SDS011;1209;48.410;9.054;2022-12-11T09:18:25;18.43;;;9.07;;
2396;SDS011;1209;48.410;9.054;2022-12-11T09:21:10;14.90;;;9.63;;
2396;SDS011;1209;48.410;9.054;2022-12-11T09:23:38;16.55;;;9.00;;
2396;SDS011;1209;48.410;9.054;2022-12-11T09:26:04;15.23;;;6.95;;
2396;SDS011;1209;48.410;9.054;2022-12-11T09:28:30;16.38;;;7.50;;
2396;SDS011;1209;48.410;9.054;2022-12-11T09:30:56;12.27;;;6.70;;
2396;SDS011;1209;48.410;9.054;2022-12-11T09:33:22;11.93;;;7.07;;
2396;SDS011;1209;48.410;9.054;2022-12-11T09:35:57;13.00;;;7.63;;
2396;SDS011;1209;48.410;9.054;2022-12-11T09:38:26;11.57;;;7.65;;
2396;SDS011;1209;48.410;9.054;2022-12-11T09:40:52;12.73;;;7.30;;
2396;SDS011;1209;48.410;9.054;2022-12-11T09:46:15;9.82;;;5.50;;
2396;SDS011;1209;48.410;9.054;2022-12-11T09:48:43;11.35;;;6.03;;
2396;SDS011;1209;48.410;9.054;2022-12-11T09:51:21;10.93;;;6.30;;
2396;SDS011;1209;48.410;9.054;2022-12-11T09:53:50;9.82;;;5.45;;
2396;SDS011;1209;48.410;9.054;2022-12-11T09:56:25;9.38;;;4.47;;
2396;SDS011;1209;48.410;9.054;2022-12-11T10:04:26;8.68;;;5.43;;
2396;SDS011;1209;48.410;9.054;2022-12-11T10:10:32;11.75;;;4.47;;
2396;SDS011;1209;48.410;9.054;2022-12-11T10:13:25;13.52;;;4.35;;
2396;SDS011;1209;48.410;9.054;2022-12-11T10:18:38;8.45;;;5.72;;
2396;SDS011;1209;48.410;9.054;2022-12-11T10:21:04;7.53;;;4.20;;
2396;SDS011;1209;48.410;9.054;2022-12-11T10:23:32;7.00;;;4.90;;
2396;SDS011;1209;48.410;9.054;2022-12-11T10:26:06;9.88;;;4.43;;
2396;SDS011;1209;48.410;9.054;2022-12-11T10:28:35;12.77;;;5.90;;
2396;SDS011;1209;48.410;9.054;2022-12-11T10:36:10;11.82;;;4.95;;
2396;SDS011;1209;48.410;9.054;2022-12-11T10:38:42;5.95;;;4.47;;
2396;SDS011;1209;48.410;9.054;2022-12-11T10:41:10;7.90;;;5.03;;
2396;SDS011;1209;48.410;9.054;2022-12-11T10:43:43;7.75;;;5.13;;
2396;SDS011;1209;48.410;9.054;2022-12-11T10:46:19;10.10;;;4.60;;
2396;SDS011;1209;48.410;9.054;2022-12-11T10:48:52;5.53;;;4.38;;
2396;SDS011;1209;48.410;9.054;2022-12-11T10:51:32;8.70;;;5.07;;
2396;SDS011;1209;48.410;9.054;2022-12-11T10:54:45;11.07;;;5.68;;
2396;SDS011;1209;48.410;9.054;2022-12-11T10:56:48;18.40;;;5.53;;
2396;SDS011;1209;48.410;9.054;2022-12-11T10:59:21;15.17;;;6.67;;
2396;SDS011;1209;48.410;9.054;2022-12-11T11:02:03;12.00;;;6.20;;
2396;SDS011;1209;48.410;9.054;2022-12-11T11:04:31;12.50;;;6.25;;
2396;SDS011;1209;48.410;9.054;2022-12-11T11:07:09;10.48;;;5.75;;
2396;SDS011;1209;48.410;9.054;2022-12-11T11:09:36;13.18;;;5.90;;
2396;SDS011;1209;48.410;9.054;2022-12-11T11:12:01;11.67;;;4.50;;
2396;SDS011;1209;48.410;9.054;2022-12-11T11:14:27;9.75;;;4.75;;
2396;SDS011;1209;48.410;9.054;2022-12-11T11:16:56;12.40;;;6.20;;
2396;SDS011;1209;48.410;9.054;2022-12-11T11:19:28;8.60;;;4.90;;
2396;SDS011;1209;48.410;9.054;2022-12-11T11:22:00;5.55;;;4.20;;
2396;SDS011;1209;48.410;9.054;2022-12-11T11:24:32;4.13;;;2.70;;
2396;SDS011;1209;48.410;9.054;2022-12-11T11:27:01;5.70;;;4.78;;
2396;SDS011;1209;48.410;9.054;2022-12-11T11:29:31;16.73;;;7.18;;
2396;SDS011;1209;48.410;9.054;2022-12-11T11:32:01;13.32;;;7.53;;
2396;SDS011;1209;48.410;9.054;2022-12-11T11:34:39;5.57;;;4.20;;
2396;SDS011;1209;48.410;9.054;2022-12-11T11:37:14;7.93;;;4.83;;
2396;SDS011;1209;48.410;9.054;2022-12-11T11:39:47;5.95;;;3.75;;
2396;SDS011;1209;48.410;9.054;2022-12-11T11:42:53;7.80;;;5.13;;
2396;SDS011;1209;48.410;9.054;2022-12-11T11:45:24;14.20;;;5.30;;
2396;SDS011;1209;48.410;9.054;2022-12-11T11:48:20;5.18;;;3.25;;
2396;SDS011;1209;48.410;9.054;2022-12-11T11:50:58;4.40;;;3.38;;
2396;SDS011;1209;48.410;9.054;2022-12-11T11:53:30;7.03;;;3.72;;
2396;SDS011;1209;48.410;9.054;2022-12-11T12:01:15;6.65;;;5.10;;
2396;SDS011;1209;48.410;9.054;2022-12-11T12:03:43;6.70;;;4.85;;
2396;SDS011;1209;48.410;9.054;2022-12-11T12:09:13;4.03;;;3.58;;
2396;SDS011;1209;48.410;9.054;2022-12-11T12:11:48;3.30;;;3.10;;
2396;SDS011;1209;48.410;9.054;2022-12-11T12:19:50;6.05;;;4.60;;
2396;SDS011;1209;48.410;9.054;2022-12-11T12:27:36;5.68;;;3.03;;
2396;SDS011;1209;48.410;9.054;2022-12-11T12:30:19;6.18;;;4.70;;
2396;SDS011;1209;48.410;9.054;2022-12-11T12:35:41;4.28;;;3.28;;
2396;SDS011;1209;48.410;9.054;2022-12-11T12:41:37;3.42;;;3.13;;
2396;SDS011;1209;48.410;9.054;2022-12-11T12:44:18;2.95;;;2.75;;
2396;SDS011;1209;48.410;9.054;2022-12-11T12:46:59;5.55;;;3.25;;
2396;SDS011;1209;48.410;9.054;2022-12-11T12:49:41;2.95;;;2.58;;
2396;SDS011;1209;48.410;9.054;2022-12-11T12:52:14;6.88;;;4.82;;
2396;SDS011;1209;48.410;9.054;2022-12-11T12:54:42;6.50;;;3.70;;
2396;SDS011;1209;48.410;9.054;2022-12-11T12:57:29;5.50;;;3.70;;
2396;SDS011;1209;48.410;9.054;2022-12-11T12:59:56;3.10;;;2.88;;
2396;SDS011;1209;48.410;9.054;2022-12-11T13:02:22;2.10;;;2.00;;
2396;SDS011;1209;48.410;9.054;2022-12-11T13:04:54;2.47;;;2.00;;
2396;SDS011;1209;48.410;9.054;2022-12-11T13:07:29;2.28;;;2.08;;
2396;SDS011;1209;48.410;9.054;2022-12-11T13:09:57;2.40;;;2.30;;
2396;SDS011;1209;48.410;9.054;2022-12-11T13:12:32;3.92;;;2.53;;
2396;SDS011;1209;48.410;9.054;2022-12-11T13:20:59;9.65;;;2.58;;
2396;SDS011;1209;48.410;9.054;2022-12-11T13:23:27;2.33;;;2.20;;
2396;SDS011;1209;48.410;9.054;2022-12-11T13:25:58;4.38;;;2.53;;
2396;SDS011;1209;48.410;9.054;2022-12-11T13:28:32;2.70;;;2.60;;
2396;SDS011;1209;48.410;9.054;2022-12-11T13:33:44;4.90;;;3.08;;
2396;SDS011;1209;48.410;9.054;2022-12-11T13:38:38;6.17;;;3.17;;
2396;SDS011;1209;48.410;9.054;2022-12-11T13:41:12;3.70;;;2.47;;
2396;SDS011;1209;48.410;9.054;2022-12-11T13:43:38;4.53;;;2.60;;
2396;SDS011;1209;48.410;9.054;2022-12-11T13:46:07;3.17;;;2.80;;
2396;SDS011;1209;48.410;9.054;2022-12-11T13:48:38;3.40;;;2.78;;
2396;SDS011;1209;48.410;9.054;2022-12-11T13:51:15;3.28;;;2.63;;
2396;SDS011;1209;48.410;9.054;2022-12-11T13:53:42;3.33;;;3.00;;
2396;SDS011;1209;48.410;9.054;2022-12-11T13:56:15;3.60;;;2.97;;
2396;SDS011;1209;48.410;9.054;2022-12-11T13:58:43;2.67;;;2.33;;
2396;SDS011;1209;48.410;9.054;2022-12-11T14:04:00;4.25;;;3.53;;
2396;SDS011;1209;48.410;9.054;2022-12-11T14:06:28;7.63;;;4.18;;
2396;SDS011;1209;48.410;9.054;2022-12-11T14:08:56;7.03;;;3.45;;
2396;SDS011;1209;48.410;9.054;2022-12-11T14:11:25;3.63;;;3.00;;
2396;SDS011;1209;48.410;9.054;2022-12-11T14:13:54;4.80;;;3.63;;
2396;SDS011;1209;48.410;9.054;2022-12-11T14:16:23;3.65;;;3.25;;
2396;SDS011;1209;48.410;9.054;2022-12-11T14:18:50;4.45;;;3.72;;
2396;SDS011;1209;48.410;9.054;2022-12-11T14:21:18;2.75;;;2.55;;
2396;SDS011;1209;48.410;9.054;2022-12-11T14:23:50;5.55;;;3.45;;
2396;SDS011;1209;48.410;9.054;2022-12-11T14:26:22;4.55;;;3.40;;
2396;SDS011;1209;48.410;9.054;2022-12-11T14:28:49;3.97;;;2.90;;
2396;SDS011;1209;48.410;9.054;2022-12-11T14:31:16;7.28;;;3.30;;
2396;SDS011;1209;48.410;9.054;2022-12-11T14:33:53;4.97;;;3.55;;
2396;SDS011;1209;48.410;9.054;2022-12-11T14:36:24;9.05;;;4.47;;
2396;SDS011;1209;48.410;9.054;2022-12-11T14:38:54;6.28;;;3.80;;
2396;SDS011;1209;48.410;9.054;2022-12-11T14:41:24;6.88;;;3.88;;
2396;SDS011;1209;48.410;9.054;2022-12-11T14:44:00;6.60;;;4.70;;
2396;SDS011;1209;48.410;9.054;2022-12-11T14:46:33;7.35;;;5.25;;
2396;SDS011;1209;48.410;9.054;2022-12-11T14:49:04;9.40;;;5.88;;
2396;SDS011;1209;48.410;9.054;2022-12-11T14:51:37;13.52;;;5.78;;
2396;SDS011;1209;48.410;9.054;2022-12-11T14:54:04;11.65;;;6.10;;
2396;SDS011;1209;48.410;9.054;2022-12-11T14:56:32;9.63;;;5.35;;
2396;SDS011;1209;48.410;9.054;2022-12-11T15:01:29;8.82;;;5.20;;
2396;SDS011;1209;48.410;9.054;2022-12-11T15:04:04;6.50;;;4.20;;
2396;SDS011;1209;48.410;9.054;2022-12-11T15:06:42;8.80;;;4.75;;
2396;SDS011;1209;48.410;9.054;2022-12-11T15:12:12;5.60;;;4.35;;
2396;SDS011;1209;48.410;9.054;2022-12-11T15:17:14;7.00;;;4.53;;
2396;SDS011;1209;48.410;9.054;2022-12-11T15:19:39;8.63;;;4.43;;
2396;SDS011;1209;48.410;9.054;2022-12-11T15:22:06;10.17;;;5.37;;
2396;SDS011;1209;48.410;9.054;2022-12-11T15:24:40;4.70;;;4.25;;
2396;SDS011;1209;48.410;9.054;2022-12-11T15:29:51;6.43;;;4.80;;
2396;SDS011;1209;48.410;9.054;2022-12-11T15:32:17;7.63;;;4.77;;
2396;SDS011;1209;48.410;9.054;2022-12-11T15:34:51;6.85;;;4.30;;
2396;SDS011;1209;48.410;9.054;2022-12-11T15:37:31;7.60;;;3.67;;
2396;SDS011;1209;48.410;9.054;2022-12-11T15:40:00;6.25;;;4.30;;
2396;SDS011;1209;48.410;9.054;2022-12-11T15:42:29;8.10;;;4.75;;
2396;SDS011;1209;48.410;9.054;2022-12-11T15:44:56;4.50;;;4.05;;
2396;SDS011;1209;48.410;9.054;2022-12-11T15:47:24;10.63;;;5.18;;
2396;SDS011;1209;48.410;9.054;2022-12-11T15:52:47;17.50;;;8.73;;
2396;SDS011;1209;48.410;9.054;2022-12-11T15:55:14;13.70;;;7.28;;
2396;SDS011;1209;48.410;9.054;2022-12-11T15:57:46;10.67;;;7.33;;
2396;SDS011;1209;48.410;9.054;2022-12-11T16:00:17;18.05;;;9.13;;
2396;SDS011;1209;48.410;9.054;2022-12-11T16:02:43;16.88;;;10.07;;
2396;SDS011;1209;48.410;9.054;2022-12-11T16:05:09;14.97;;;7.23;;
2396;SDS011;1209;48.410;9.054;2022-12-11T16:07:37;7.97;;;5.10;;
2396;SDS011;1209;48.410;9.054;2022-12-11T16:10:02;7.00;;;5.35;;
2396;SDS011;1209;48.410;9.054;2022-12-11T16:12:29;6.22;;;3.95;;
2396;SDS011;1209;48.410;9.054;2022-12-11T16:14:54;5.67;;;4.07;;
2396;SDS011;1209;48.410;9.054;2022-12-11T16:17:20;5.77;;;4.23;;
2396;SDS011;1209;48.410;9.054;2022-12-11T16:19:45;5.53;;;3.80;;
2396;SDS011;1209;48.410;9.054;2022-12-11T16:22:11;6.57;;;4.43;;
2396;SDS011;1209;48.410;9.054;2022-12-11T16:24:37;9.00;;;5.25;;
2396;SDS011;1209;48.410;9.054;2022-12-11T16:27:04;10.25;;;6.00;;
2396;SDS011;1209;48.410;9.054;2022-12-11T16:29:34;10.88;;;6.45;;
2396;SDS011;1209;48.410;9.054;2022-12-11T16:32:04;10.52;;;5.50;;
2396;SDS011;1209;48.410;9.054;2022-12-11T16:34:31;10.73;;;5.63;;
2396;SDS011;1209;48.410;9.054;2022-12-11T16:36:57;19.10;;;8.60;;
2396;SDS011;1209;48.410;9.054;2022-12-11T16:39:23;16.08;;;8.50;;
2396;SDS011;1209;48.410;9.054;2022-12-11T16:41:48;27.73;;;12.70;;
2396;SDS011;1209;48.410;9.054;2022-12-11T16:44:17;21.57;;;10.97;;
2396;SDS011;1209;48.410;9.054;2022-12-11T16:46:44;20.00;;;9.73;;
2396;SDS011;1209;48.410;9.054;2022-12-11T16:49:09;23.60;;;10.53;;